createdAt,value
2023-04-22T00:01:40.246Z,20.38
2023-04-22T00:04:07.666Z,21.38
2023-04-22T00:06:35.694Z,19.10
2023-04-22T00:09:03.506Z,21.00
2023-04-22T00:11:30.810Z,19.02
2023-04-22T00:13:58.202Z,24.95
2023-04-22T00:16:27.246Z,17.67
2023-04-22T00:18:54.535Z,20.45
2023-04-22T00:21:22.055Z,21.20
2023-04-22T00:23:49.408Z,23.00
2023-04-22T00:26:16.712Z,19.88
2023-04-22T00:28:44.072Z,19.60
2023-04-22T00:31:11.414Z,19.02
2023-04-22T00:33:38.746Z,17.20
2023-04-22T00:36:06.364Z,18.85
2023-04-22T00:38:33.956Z,21.67
2023-04-22T00:41:01.348Z,19.75
2023-04-22T00:43:28.869Z,23.13
2023-04-22T00:45:57.488Z,18.58
2023-04-22T00:48:26.845Z,23.80
2023-04-22T00:50:58.644Z,21.08
2023-04-22T00:53:26.216Z,22.65
2023-04-22T00:55:53.865Z,22.05
2023-04-22T00:58:21.869Z,18.55
2023-04-22T01:00:50.319Z,19.98
2023-04-22T01:03:18.297Z,23.00
2023-04-22T01:05:47.424Z,19.30
2023-04-22T01:08:14.945Z,22.25
2023-04-22T01:10:42.791Z,18.00
2023-04-22T01:13:10.424Z,18.92
2023-04-22T01:15:38.123Z,17.10
2023-04-22T01:18:05.647Z,19.75
2023-04-22T01:20:33.163Z,21.98
2023-04-22T01:23:03.214Z,19.02
2023-04-22T01:25:31.147Z,21.50
2023-04-22T01:27:58.581Z,18.40
2023-04-22T01:30:26.309Z,18.55
2023-04-22T01:32:53.890Z,19.55
2023-04-22T01:35:21.530Z,23.98
2023-04-22T01:37:48.808Z,19.25
2023-04-22T01:40:19.705Z,18.80
2023-04-22T01:42:47.217Z,20.98
2023-04-22T01:45:17.618Z,19.40
2023-04-22T01:47:45.726Z,16.60
2023-04-22T01:50:13.036Z,15.07
2023-04-22T01:52:40.499Z,13.90
2023-04-22T01:55:08.619Z,14.25
2023-04-22T01:57:36.456Z,17.40
2023-04-22T02:00:05.687Z,17.00
2023-04-22T02:02:40.077Z,18.23
2023-04-22T02:05:08.287Z,13.93
2023-04-22T02:07:36.518Z,16.13
2023-04-22T02:10:05.598Z,16.95
2023-04-22T02:12:32.980Z,14.98
2023-04-22T02:15:00.298Z,14.63
2023-04-22T02:17:27.881Z,14.65
2023-04-22T02:19:55.429Z,13.50
2023-04-22T02:22:23.917Z,13.35
2023-04-22T02:24:51.750Z,14.23
2023-04-22T02:27:18.991Z,13.77
2023-04-22T02:29:48.491Z,12.90
2023-04-22T02:32:17.979Z,16.15
2023-04-22T02:34:45.305Z,14.85
2023-04-22T02:37:13.703Z,15.90
2023-04-22T02:39:41.082Z,13.35
2023-04-22T02:42:08.677Z,14.30
2023-04-22T02:44:36.101Z,15.70
2023-04-22T02:47:04.245Z,15.38
2023-04-22T02:49:31.508Z,17.10
2023-04-22T02:51:58.896Z,14.95
2023-04-22T02:54:26.228Z,16.95
2023-04-22T02:56:53.525Z,16.52
2023-04-22T02:59:20.941Z,17.42
2023-04-22T03:01:48.612Z,17.85
2023-04-22T03:06:56.314Z,16.95
2023-04-22T03:09:23.639Z,18.25
2023-04-22T03:11:50.892Z,19.50
2023-04-22T03:14:18.251Z,18.25
2023-04-22T03:16:45.591Z,20.35
2023-04-22T03:19:15.099Z,18.13
2023-04-22T03:21:42.445Z,22.27
2023-04-22T03:24:10.079Z,21.85
2023-04-22T03:26:42.993Z,20.52
2023-04-22T03:29:10.287Z,21.95
2023-04-22T03:31:37.814Z,18.63
2023-04-22T03:34:05.250Z,22.52
2023-04-22T03:36:33.210Z,19.35
2023-04-22T03:39:00.755Z,20.17
2023-04-22T03:41:29.264Z,21.25
2023-04-22T03:43:56.927Z,18.60
2023-04-22T03:46:25.480Z,22.45
2023-04-22T03:49:00.724Z,21.65
2023-04-22T03:51:32.321Z,20.42
2023-04-22T03:54:03.751Z,20.35
2023-04-22T03:56:34.287Z,23.17
2023-04-22T03:59:02.063Z,21.17
2023-04-22T04:01:29.689Z,21.98
2023-04-22T04:04:00.805Z,23.23
2023-04-22T04:06:36.093Z,19.50
2023-04-22T04:09:05.602Z,20.52
2023-04-22T04:11:33.872Z,21.97
2023-04-22T04:14:03.514Z,18.42
2023-04-22T04:19:14.456Z,21.45
2023-04-22T04:21:42.312Z,22.70
2023-04-22T04:24:09.981Z,18.52
2023-04-22T04:26:43.413Z,22.85
2023-04-22T04:29:15.879Z,19.70
2023-04-22T04:31:49.546Z,24.23
2023-04-22T04:34:17.711Z,21.35
2023-04-22T04:36:46.543Z,20.25
2023-04-22T04:39:29.182Z,21.33
2023-04-22T04:41:59.013Z,21.95
2023-04-22T04:44:28.209Z,22.65
2023-04-22T04:46:58.094Z,23.35
2023-04-22T04:49:26.628Z,28.15
2023-04-22T04:51:58.731Z,26.70
2023-04-22T04:54:27.299Z,26.02
2023-04-22T04:56:55.348Z,27.58
2023-04-22T04:59:22.906Z,27.38
2023-04-22T05:01:50.551Z,24.95
2023-04-22T05:04:18.160Z,29.27
2023-04-22T05:06:45.696Z,24.45
2023-04-22T05:09:15.105Z,27.98
2023-04-22T05:11:44.631Z,30.65
2023-04-22T05:14:16.947Z,32.80
2023-04-22T05:16:46.367Z,29.27
2023-04-22T05:19:14.564Z,31.38
2023-04-22T05:21:43.002Z,31.00
2023-04-22T05:24:10.446Z,30.85
2023-04-22T05:26:37.979Z,30.45
2023-04-22T05:29:11.942Z,30.88
2023-04-22T05:31:39.538Z,34.25
2023-04-22T05:34:07.921Z,29.77
2023-04-22T05:36:35.673Z,30.48
2023-04-22T05:39:03.110Z,30.27
2023-04-22T05:41:32.545Z,29.48
2023-04-22T05:44:01.060Z,33.13
2023-04-22T05:46:29.989Z,30.17
2023-04-22T05:48:57.670Z,32.40
2023-04-22T05:51:43.607Z,31.85
2023-04-22T05:54:13.608Z,30.98
2023-04-22T05:56:41.237Z,36.00
2023-04-22T05:59:08.786Z,33.63
2023-04-22T06:01:39.305Z,34.22
2023-04-22T06:04:10.142Z,32.85
2023-04-22T06:06:38.008Z,37.53
2023-04-22T06:09:07.096Z,38.15
2023-04-22T06:11:34.462Z,36.55
2023-04-22T06:14:01.739Z,32.88
2023-04-22T06:16:29.670Z,34.70
2023-04-22T06:18:56.898Z,36.95
2023-04-22T06:21:25.231Z,32.38
2023-04-22T06:23:52.559Z,33.13
2023-04-22T06:26:22.507Z,36.78
2023-04-22T06:28:49.914Z,35.08
2023-04-22T06:31:21.230Z,34.05
2023-04-22T06:33:49.142Z,36.20
2023-04-22T06:36:16.541Z,33.17
2023-04-22T06:41:35.124Z,33.50
2023-04-22T06:44:09.685Z,36.70
2023-04-22T06:46:50.456Z,34.25
2023-04-22T06:49:38.736Z,34.75
2023-04-22T06:52:29.176Z,38.00
2023-04-22T06:54:58.945Z,32.78
2023-04-22T06:57:26.191Z,38.42
2023-04-22T06:59:53.451Z,36.45
2023-04-22T07:02:22.198Z,35.08
2023-04-22T07:04:50.448Z,33.80
2023-04-22T07:07:17.854Z,33.75
2023-04-22T07:09:45.760Z,35.83
2023-04-22T07:12:13.171Z,36.13
2023-04-22T07:14:47.010Z,37.08
2023-04-22T07:17:14.385Z,34.85
2023-04-22T07:19:42.253Z,31.20
2023-04-22T07:22:09.833Z,32.30
2023-04-22T07:24:37.549Z,35.67
2023-04-22T07:27:04.851Z,35.95
2023-04-22T07:29:32.058Z,31.15
2023-04-22T07:32:00.584Z,32.80
2023-04-22T07:34:27.887Z,31.70
2023-04-22T07:36:55.363Z,32.65
2023-04-22T07:39:22.823Z,32.67
2023-04-22T07:41:51.208Z,29.85
2023-04-22T07:44:21.555Z,34.42
2023-04-22T07:46:50.333Z,32.15
2023-04-22T07:49:17.638Z,31.33
2023-04-22T07:51:44.962Z,30.58
2023-04-22T07:54:12.414Z,31.63
2023-04-22T07:56:39.678Z,30.42
2023-04-22T07:59:06.948Z,30.35
2023-04-22T08:01:34.283Z,29.95
2023-04-22T08:04:02.005Z,32.03
2023-04-22T08:06:29.497Z,29.55
2023-04-22T08:08:56.820Z,29.85
2023-04-22T08:11:24.261Z,29.08
2023-04-22T08:13:51.784Z,29.95
2023-04-22T08:16:19.479Z,30.30
2023-04-22T08:18:46.858Z,30.65
2023-04-22T08:21:14.706Z,28.27
2023-04-22T08:23:41.986Z,28.40
2023-04-22T08:26:15.045Z,29.08
2023-04-22T08:28:42.704Z,27.38
2023-04-22T08:31:11.912Z,28.50
2023-04-22T08:33:42.379Z,49.60
2023-04-22T08:36:11.127Z,46.10
2023-04-22T08:38:38.410Z,45.83
2023-04-22T08:41:06.146Z,39.88
2023-04-22T08:43:34.403Z,36.13
2023-04-22T08:46:02.298Z,51.00
2023-04-22T08:48:29.787Z,27.90
2023-04-22T08:50:59.006Z,25.88
2023-04-22T08:53:26.990Z,21.20
2023-04-22T08:55:56.442Z,18.58
2023-04-22T08:58:24.238Z,19.02
2023-04-22T09:00:51.999Z,22.52
2023-04-22T09:03:19.670Z,19.08
2023-04-22T09:05:47.503Z,18.52
2023-04-22T09:08:14.906Z,20.05
2023-04-22T09:10:42.335Z,17.85
2023-04-22T09:13:09.946Z,22.92
2023-04-22T09:15:37.510Z,24.02
2023-04-22T09:18:05.644Z,20.35
2023-04-22T09:20:33.113Z,19.60
2023-04-22T09:23:05.076Z,19.48
2023-04-22T09:25:35.189Z,22.38
2023-04-22T09:28:03.302Z,23.85
2023-04-22T09:30:32.729Z,15.70
2023-04-22T09:33:04.266Z,17.92
2023-04-22T09:35:33.643Z,13.68
2023-04-22T09:38:07.998Z,13.17
2023-04-22T09:40:36.069Z,14.93
2023-04-22T09:43:06.375Z,15.70
2023-04-22T09:45:41.843Z,13.07
2023-04-22T09:48:14.323Z,13.38
2023-04-22T09:50:50.170Z,14.63
2023-04-22T09:53:19.433Z,10.38
2023-04-22T09:55:51.828Z,11.70
2023-04-22T09:58:20.849Z,11.68
2023-04-22T10:00:51.056Z,12.32
2023-04-22T10:03:19.205Z,11.73
2023-04-22T10:05:46.740Z,10.90
2023-04-22T10:08:15.301Z,11.95
2023-04-22T10:10:43.120Z,10.27
2023-04-22T10:13:10.693Z,12.57
2023-04-22T10:15:57.308Z,12.85
2023-04-22T10:18:26.877Z,11.75
2023-04-22T10:20:56.728Z,12.43
2023-04-22T10:23:24.871Z,12.60
2023-04-22T10:25:54.693Z,14.63
2023-04-22T10:28:23.709Z,13.98
2023-04-22T10:30:51.257Z,13.80
2023-04-22T10:33:21.768Z,12.70
2023-04-22T10:36:21.622Z,14.25
2023-04-22T10:38:54.656Z,12.07
2023-04-22T10:41:35.571Z,12.48
2023-04-22T10:44:07.667Z,11.52
2023-04-22T10:46:37.095Z,13.27
2023-04-22T10:49:13.223Z,11.80
2023-04-22T10:52:00.160Z,12.40
2023-04-22T10:54:29.567Z,11.70
2023-04-22T10:57:17.067Z,12.27
2023-04-22T10:59:49.434Z,14.20
2023-04-22T11:02:18.613Z,15.98
2023-04-22T11:04:46.368Z,15.85
2023-04-22T11:07:26.396Z,15.27
2023-04-22T11:10:00.673Z,16.85
2023-04-22T11:12:42.130Z,14.30
2023-04-22T11:15:11.531Z,13.40
2023-04-22T11:17:40.362Z,14.63
2023-04-22T11:20:08.638Z,14.20
2023-04-22T11:22:38.490Z,14.45
2023-04-22T11:25:06.635Z,16.40
2023-04-22T11:27:33.859Z,15.10
2023-04-22T11:30:01.176Z,15.18
2023-04-22T11:32:29.507Z,14.27
2023-04-22T11:34:57.539Z,16.45
2023-04-22T11:37:24.958Z,15.52
2023-04-22T11:40:16.899Z,15.95
2023-04-22T11:42:40.002Z,16.27
2023-04-22T11:45:08.529Z,15.63
2023-04-22T11:47:36.240Z,15.70
2023-04-22T11:50:07.117Z,15.77
2023-04-22T11:52:53.515Z,15.10
2023-04-22T11:55:21.122Z,16.27
2023-04-22T11:58:00.127Z,17.00
2023-04-22T12:00:33.040Z,16.58
2023-04-22T12:03:21.706Z,14.80
2023-04-22T12:05:59.396Z,14.95
2023-04-22T12:08:37.084Z,16.85
2023-04-22T12:11:06.342Z,16.85
2023-04-22T12:13:42.373Z,16.23
2023-04-22T12:16:14.089Z,19.60
2023-04-22T12:18:48.849Z,15.40
2023-04-22T12:21:20.171Z,15.25
2023-04-22T12:23:59.067Z,16.92
2023-04-22T12:26:27.882Z,18.85
2023-04-22T12:28:58.051Z,17.33
2023-04-22T12:31:26.164Z,19.67
2023-04-22T12:33:53.961Z,19.02
2023-04-22T12:36:21.550Z,19.75
2023-04-22T12:38:49.303Z,22.10
2023-04-22T12:41:16.690Z,17.00
2023-04-22T12:43:44.019Z,17.02
2023-04-22T12:46:11.483Z,19.00
2023-04-22T12:48:38.858Z,17.60
2023-04-22T12:51:06.981Z,19.38
2023-04-22T12:53:34.780Z,16.90
2023-04-22T12:56:02.361Z,14.63
2023-04-22T12:58:30.005Z,16.40
2023-04-22T13:00:59.792Z,14.65
2023-04-22T13:03:27.723Z,20.85
2023-04-22T13:05:55.038Z,16.13
2023-04-22T13:08:22.477Z,15.40
2023-04-22T13:10:49.837Z,13.85
2023-04-22T13:13:19.403Z,13.98
2023-04-22T13:15:53.859Z,15.35
2023-04-22T13:18:22.748Z,12.23
2023-04-22T13:20:50.143Z,11.38
2023-04-22T13:23:17.652Z,11.43
2023-04-22T13:25:44.999Z,9.45
2023-04-22T13:28:12.392Z,12.15
2023-04-22T13:30:40.148Z,12.27
2023-04-22T13:33:07.627Z,10.80
2023-04-22T13:35:36.107Z,9.88
2023-04-22T13:38:03.959Z,11.13
2023-04-22T13:40:31.237Z,11.48
2023-04-22T13:42:58.776Z,11.32
2023-04-22T13:45:26.225Z,9.02
2023-04-22T13:47:54.160Z,10.30
2023-04-22T13:50:23.264Z,8.80
2023-04-22T13:52:50.623Z,7.88
2023-04-22T13:55:18.029Z,8.77
2023-04-22T13:57:45.817Z,8.80
2023-04-22T14:00:14.014Z,7.72
2023-04-22T14:02:41.776Z,10.05
2023-04-22T14:05:10.531Z,7.05
2023-04-22T14:07:38.011Z,8.27
2023-04-22T14:10:08.428Z,8.52
2023-04-22T14:12:35.732Z,7.63
2023-04-22T14:15:03.222Z,10.05
2023-04-22T14:17:31.005Z,9.98
2023-04-22T14:20:00.124Z,6.85
2023-04-22T14:22:27.700Z,7.60
2023-04-22T14:24:55.652Z,10.95
2023-04-22T14:27:23.132Z,7.75
2023-04-22T14:29:52.457Z,7.57
2023-04-22T14:32:20.370Z,7.97
2023-04-22T14:34:48.445Z,10.63
2023-04-22T14:37:15.828Z,8.57
2023-04-22T14:39:43.109Z,7.93
2023-04-22T14:42:10.996Z,9.43
2023-04-22T14:44:38.236Z,7.15
2023-04-22T14:47:06.138Z,8.52
2023-04-22T14:49:33.503Z,8.43
2023-04-22T14:52:01.497Z,12.00
2023-04-22T14:54:29.006Z,6.45
2023-04-22T14:56:56.541Z,8.60
2023-04-22T14:59:23.780Z,7.22
2023-04-22T15:01:51.180Z,7.55
2023-04-22T15:04:19.442Z,7.72
2023-04-22T15:06:46.999Z,8.88
2023-04-22T15:09:14.365Z,5.63
2023-04-22T15:11:41.649Z,6.30
2023-04-22T15:14:08.965Z,6.53
2023-04-22T15:16:36.359Z,8.73
2023-04-22T15:19:03.655Z,5.28
2023-04-22T15:21:32.002Z,6.68
2023-04-22T15:23:59.246Z,6.85
2023-04-22T15:26:26.533Z,9.15
2023-04-22T15:28:53.800Z,5.97
2023-04-22T15:31:21.459Z,5.15
2023-04-22T15:33:48.783Z,5.68
2023-04-22T15:36:19.862Z,5.90
2023-04-22T15:38:47.332Z,5.78
2023-04-22T15:41:15.686Z,5.22
2023-04-22T15:43:43.046Z,5.22
2023-04-22T15:46:10.395Z,7.97
2023-04-22T15:48:37.732Z,8.98
2023-04-22T15:51:05.303Z,7.43
2023-04-22T15:53:32.744Z,5.97
2023-04-22T15:56:00.015Z,6.38
2023-04-22T15:58:28.996Z,5.25
2023-04-22T16:01:07.693Z,5.07
2023-04-22T16:03:45.167Z,5.63
2023-04-22T16:06:12.763Z,5.00
2023-04-22T16:08:40.050Z,6.18
2023-04-22T16:11:07.452Z,7.80
2023-04-22T16:13:34.708Z,6.00
2023-04-22T16:16:02.050Z,6.32
2023-04-22T16:18:29.427Z,5.75
2023-04-22T16:20:56.823Z,6.10
2023-04-22T16:23:24.076Z,5.78
2023-04-22T16:25:51.493Z,6.72
2023-04-22T16:28:19.041Z,4.88
2023-04-22T16:30:46.909Z,6.18
2023-04-22T16:33:14.886Z,8.27
2023-04-22T16:35:42.622Z,6.22
2023-04-22T16:38:10.260Z,5.90
2023-04-22T16:40:38.710Z,7.85
2023-04-22T16:43:07.228Z,7.65
2023-04-22T16:45:35.601Z,5.20
2023-04-22T16:48:03.444Z,5.47
2023-04-22T16:50:30.727Z,5.15
2023-04-22T16:52:58.136Z,7.53
2023-04-22T16:55:25.423Z,7.15
2023-04-22T16:57:52.893Z,8.10
2023-04-22T17:00:20.948Z,8.50
2023-04-22T17:02:48.369Z,6.65
2023-04-22T17:05:15.820Z,8.02
2023-04-22T17:07:43.199Z,5.78
2023-04-22T17:10:10.716Z,8.98
2023-04-22T17:12:37.996Z,4.75
2023-04-22T17:15:06.335Z,6.45
2023-04-22T17:17:33.759Z,6.38
2023-04-22T17:20:01.207Z,9.38
2023-04-22T17:22:28.442Z,6.22
2023-04-22T17:24:57.587Z,8.13
2023-04-22T17:27:25.040Z,5.85
2023-04-22T17:29:52.376Z,8.88
2023-04-22T17:32:20.197Z,5.63
2023-04-22T17:34:47.838Z,6.78
2023-04-22T17:37:15.214Z,6.00
2023-04-22T17:39:42.814Z,5.30
2023-04-22T17:42:10.137Z,5.22
2023-04-22T17:44:37.795Z,10.05
2023-04-22T17:47:07.143Z,5.03
2023-04-22T17:49:34.902Z,6.40
2023-04-22T17:52:02.209Z,6.75
2023-04-22T17:54:29.570Z,12.30
2023-04-22T17:56:57.054Z,10.02
2023-04-22T17:59:24.385Z,9.23
2023-04-22T18:01:51.698Z,6.93
2023-04-22T18:04:19.412Z,7.18
2023-04-22T18:06:47.007Z,7.60
2023-04-22T18:09:14.329Z,7.05
2023-04-22T18:11:41.576Z,5.63
2023-04-22T18:14:08.977Z,6.60
2023-04-22T18:16:36.223Z,7.07
2023-04-22T18:19:06.646Z,6.93
2023-04-22T18:21:36.121Z,7.15
2023-04-22T18:24:04.548Z,9.60
2023-04-22T18:26:32.317Z,10.93
2023-04-22T18:28:59.618Z,10.32
2023-04-22T18:31:27.098Z,12.30
2023-04-22T18:33:54.409Z,9.82
2023-04-22T18:36:21.676Z,8.10
2023-04-22T18:38:48.967Z,9.65
2023-04-22T18:41:16.477Z,9.05
2023-04-22T18:43:43.950Z,9.18
2023-04-22T18:46:11.206Z,7.15
2023-04-22T18:48:38.552Z,7.88
2023-04-22T18:51:06.112Z,6.93
2023-04-22T18:53:34.383Z,13.80
2023-04-22T18:56:02.193Z,9.88
2023-04-22T18:58:29.691Z,9.48
2023-04-22T19:00:57.048Z,10.60
2023-04-22T19:03:27.708Z,10.75
2023-04-22T19:05:55.140Z,11.98
2023-04-22T19:08:22.448Z,9.55
2023-04-22T19:10:49.667Z,8.98
2023-04-22T19:13:29.089Z,7.03
2023-04-22T19:15:57.973Z,12.25
2023-04-22T19:18:26.250Z,8.57
2023-04-22T19:20:54.044Z,9.32
2023-04-22T19:23:21.876Z,12.48
2023-04-22T19:25:49.231Z,12.93
2023-04-22T19:28:16.425Z,12.00
2023-04-22T19:30:43.696Z,12.13
2023-04-22T19:33:11.310Z,15.93
2023-04-22T19:35:38.544Z,14.05
2023-04-22T19:38:05.950Z,15.07
2023-04-22T19:40:33.387Z,11.65
2023-04-22T19:43:00.861Z,9.43
2023-04-22T19:45:29.918Z,9.05
2023-04-22T19:47:57.587Z,9.63
2023-04-22T19:50:25.045Z,8.80
2023-04-22T19:52:57.519Z,10.57
2023-04-22T19:55:25.167Z,11.32
2023-04-22T19:57:52.768Z,9.15
2023-04-22T20:00:20.389Z,10.13
2023-04-22T20:02:47.983Z,12.35
2023-04-22T20:05:18.292Z,9.60
2023-04-22T20:10:13.921Z,8.93
2023-04-22T20:12:41.615Z,11.77
2023-04-22T20:15:09.641Z,10.43
2023-04-22T20:17:39.176Z,9.07
2023-04-22T20:20:11.718Z,10.13
2023-04-22T20:22:41.449Z,10.77
2023-04-22T20:25:12.405Z,9.13
2023-04-22T20:27:40.511Z,12.07
2023-04-22T20:30:08.706Z,7.65
2023-04-22T20:32:36.733Z,10.98
2023-04-22T20:35:05.834Z,9.50
2023-04-22T20:37:36.039Z,7.45
2023-04-22T20:42:36.882Z,8.35
2023-04-22T20:45:05.448Z,7.15
2023-04-22T20:47:33.056Z,7.35
2023-04-22T20:50:00.633Z,8.52
2023-04-22T20:52:27.931Z,9.43
2023-04-22T20:54:56.667Z,7.22
2023-04-22T20:57:24.176Z,7.40
2023-04-22T20:59:51.527Z,7.07
2023-04-22T21:02:20.411Z,10.23
2023-04-22T21:04:48.312Z,8.35
2023-04-22T21:07:16.851Z,10.30
2023-04-22T21:09:44.300Z,8.85
2023-04-22T21:12:11.984Z,7.63
2023-04-22T21:14:41.699Z,10.68
2023-04-22T21:17:21.438Z,10.18
2023-04-22T21:19:50.524Z,7.75
2023-04-22T21:22:21.452Z,9.82
2023-04-22T21:24:49.694Z,7.85
2023-04-22T21:27:18.158Z,13.70
2023-04-22T21:29:46.677Z,8.70
2023-04-22T21:32:14.354Z,11.18
2023-04-22T21:34:42.181Z,6.85
2023-04-22T21:37:09.948Z,8.93
2023-04-22T21:39:37.514Z,8.63
2023-04-22T21:42:07.948Z,8.23
2023-04-22T21:44:37.208Z,7.43
2023-04-22T21:47:05.542Z,9.85
2023-04-22T21:49:33.207Z,11.68
2023-04-22T21:52:01.085Z,6.70
2023-04-22T21:54:28.502Z,11.48
2023-04-22T21:56:56.938Z,6.00
2023-04-22T21:59:24.851Z,7.93
2023-04-22T22:01:52.418Z,8.55
2023-04-22T22:04:20.081Z,10.30
2023-04-22T22:06:47.557Z,8.60
2023-04-22T22:09:15.494Z,8.50
2023-04-22T22:11:42.779Z,8.45
2023-04-22T22:14:10.186Z,8.55
2023-04-22T22:16:38.411Z,7.85
2023-04-22T22:19:06.461Z,8.75
2023-04-22T22:21:33.938Z,11.15
2023-04-22T22:24:01.262Z,12.57
2023-04-22T22:26:29.237Z,9.15
2023-04-22T22:28:57.517Z,9.02
2023-04-22T22:31:24.807Z,7.60
2023-04-22T22:33:52.232Z,13.07
2023-04-22T22:36:19.758Z,12.80
2023-04-22T22:38:47.040Z,11.85
2023-04-22T22:41:14.302Z,12.00
2023-04-22T22:43:41.548Z,9.70
2023-04-22T22:46:09.009Z,17.55
2023-04-22T22:48:36.901Z,13.63
2023-04-22T22:51:04.399Z,9.70
2023-04-22T22:53:33.845Z,11.00
2023-04-22T22:56:01.120Z,8.55
2023-04-22T22:58:28.399Z,13.20
2023-04-22T23:00:56.165Z,7.80
2023-04-22T23:03:23.604Z,11.90
2023-04-22T23:05:51.133Z,11.57
2023-04-22T23:08:18.521Z,7.85
2023-04-22T23:10:45.774Z,8.18
2023-04-22T23:13:13.011Z,8.75
2023-04-22T23:15:40.445Z,13.25
2023-04-22T23:18:09.122Z,8.98
2023-04-22T23:20:36.995Z,11.20
2023-04-22T23:23:04.713Z,7.60
2023-04-22T23:25:32.189Z,7.75
2023-04-22T23:27:59.848Z,10.88
2023-04-22T23:30:27.334Z,17.10
2023-04-22T23:32:57.656Z,10.20
2023-04-22T23:35:27.528Z,11.52
2023-04-22T23:37:55.066Z,8.88
2023-04-22T23:40:22.288Z,14.68
2023-04-22T23:42:49.840Z,12.38
2023-04-22T23:45:17.135Z,12.05
2023-04-22T23:47:44.550Z,8.60
2023-04-22T23:50:14.014Z,8.15
2023-04-22T23:52:42.632Z,8.25
2023-04-22T23:55:11.339Z,12.25
2023-04-22T23:57:38.804Z,9.38
